createdAt,value
2023-04-10T00:01:26.395Z,21.25
2023-04-10T00:03:53.956Z,25.10
2023-04-10T00:06:21.312Z,16.20
2023-04-10T00:08:48.229Z,21.23
2023-04-10T00:11:15.363Z,18.40
2023-04-10T00:13:42.315Z,19.17
2023-04-10T00:16:09.425Z,21.37
2023-04-10T00:18:36.502Z,20.27
2023-04-10T00:21:04.075Z,21.92
2023-04-10T00:23:35.017Z,20.15
2023-04-10T00:26:02.235Z,18.37
2023-04-10T00:28:29.319Z,20.20
2023-04-10T00:30:56.306Z,19.25
2023-04-10T00:33:23.354Z,18.48
2023-04-10T00:35:50.579Z,18.75
2023-04-10T00:38:17.651Z,20.55
2023-04-10T00:40:44.626Z,22.00
2023-04-10T00:43:12.259Z,24.60
2023-04-10T00:45:39.727Z,21.60
2023-04-10T00:48:06.871Z,20.30
2023-04-10T00:50:34.300Z,18.20
2023-04-10T00:53:01.295Z,18.50
2023-04-10T00:55:28.553Z,19.30
2023-04-10T00:57:56.791Z,15.60
2023-04-10T01:00:24.377Z,16.70
2023-04-10T01:02:57.765Z,18.05
2023-04-10T01:05:32.375Z,17.87
2023-04-10T01:08:17.494Z,19.87
2023-04-10T01:10:51.735Z,16.17
2023-04-10T01:13:50.265Z,18.85
2023-04-10T01:16:25.372Z,18.67
2023-04-10T01:19:24.582Z,24.33
2023-04-10T01:22:16.573Z,22.70
2023-04-10T01:25:15.251Z,25.73
2023-04-10T01:28:13.554Z,31.95
2023-04-10T01:30:41.515Z,27.52
2023-04-10T01:33:12.968Z,29.40
2023-04-10T01:35:43.295Z,27.13
2023-04-10T01:38:12.146Z,22.73
2023-04-10T01:40:42.501Z,23.35
2023-04-10T01:43:12.172Z,25.90
2023-04-10T01:45:42.159Z,23.50
2023-04-10T01:48:09.267Z,26.05
2023-04-10T01:50:36.820Z,25.23
2023-04-10T01:53:06.311Z,22.37
2023-04-10T01:55:34.522Z,23.58
2023-04-10T01:58:01.781Z,21.08
2023-04-10T02:00:29.014Z,23.80
2023-04-10T02:02:56.284Z,25.35
2023-04-10T02:05:28.762Z,24.45
2023-04-10T02:08:05.997Z,26.67
2023-04-10T02:10:52.350Z,22.55
2023-04-10T02:13:22.379Z,23.00
2023-04-10T02:15:52.371Z,27.00
2023-04-10T02:18:20.469Z,22.37
2023-04-10T02:20:47.876Z,23.50
2023-04-10T02:23:17.803Z,22.60
2023-04-10T02:25:45.237Z,21.80
2023-04-10T02:28:12.336Z,20.23
2023-04-10T02:30:39.685Z,20.12
2023-04-10T02:33:06.763Z,20.20
2023-04-10T02:35:37.905Z,22.15
2023-04-10T02:38:04.974Z,22.02
2023-04-10T02:40:32.105Z,29.42
2023-04-10T02:42:59.387Z,24.70
2023-04-10T02:45:26.428Z,24.63
2023-04-10T02:47:53.518Z,23.83
2023-04-10T02:50:20.716Z,23.55
2023-04-10T02:52:48.006Z,23.62
2023-04-10T02:55:15.107Z,23.77
2023-04-10T02:57:43.055Z,24.95
2023-04-10T03:00:19.699Z,25.05
2023-04-10T03:02:46.869Z,23.52
2023-04-10T03:05:13.937Z,26.90
2023-04-10T03:07:41.087Z,28.95
2023-04-10T03:10:08.881Z,28.75
2023-04-10T03:12:38.524Z,26.37
2023-04-10T03:15:06.566Z,28.60
2023-04-10T03:17:33.616Z,29.60
2023-04-10T03:20:00.678Z,35.17
2023-04-10T03:22:28.424Z,27.77
2023-04-10T03:24:55.836Z,25.50
2023-04-10T03:27:22.877Z,27.60
2023-04-10T03:29:49.826Z,24.70
2023-04-10T03:32:16.814Z,25.92
2023-04-10T03:34:44.145Z,31.95
2023-04-10T03:37:11.260Z,28.70
2023-04-10T03:39:38.286Z,29.55
2023-04-10T03:42:05.277Z,28.08
2023-04-10T03:44:32.395Z,27.25
2023-04-10T03:47:04.364Z,27.60
2023-04-10T03:49:31.475Z,25.48
2023-04-10T03:51:58.392Z,27.48
2023-04-10T03:54:25.597Z,29.15
2023-04-10T03:56:52.873Z,28.48
2023-04-10T03:59:20.627Z,29.45
2023-04-10T04:01:49.111Z,25.62
2023-04-10T04:04:17.184Z,24.73
2023-04-10T04:06:44.368Z,27.98
2023-04-10T04:11:41.533Z,22.20
2023-04-10T04:14:17.745Z,23.40
2023-04-10T04:16:44.842Z,22.45
2023-04-10T04:19:12.009Z,27.37
2023-04-10T04:21:39.119Z,23.20
2023-04-10T04:24:06.495Z,26.70
2023-04-10T04:26:33.741Z,25.25
2023-04-10T04:29:00.752Z,24.85
2023-04-10T04:31:32.905Z,28.25
2023-04-10T04:34:00.771Z,28.23
2023-04-10T04:36:28.846Z,69.65
2023-04-10T04:38:55.886Z,32.88
2023-04-10T04:41:22.878Z,36.53
2023-04-10T04:43:49.976Z,26.08
2023-04-10T04:46:16.994Z,27.70
2023-04-10T04:48:44.002Z,22.37
2023-04-10T04:51:11.056Z,21.37
2023-04-10T04:53:38.021Z,18.73
2023-04-10T04:56:05.336Z,19.50
2023-04-10T04:58:32.294Z,17.75
2023-04-10T05:00:59.530Z,18.62
2023-04-10T05:03:28.928Z,16.50
2023-04-10T05:05:56.954Z,20.58
2023-04-10T05:08:24.063Z,23.20
2023-04-10T05:10:51.203Z,19.67
2023-04-10T05:13:18.195Z,23.33
2023-04-10T05:15:45.613Z,19.40
2023-04-10T05:18:13.995Z,20.10
2023-04-10T05:20:41.228Z,20.27
2023-04-10T05:23:08.238Z,25.23
2023-04-10T05:25:35.745Z,28.27
2023-04-10T05:28:02.667Z,26.37
2023-04-10T05:30:29.691Z,23.55
2023-04-10T05:32:57.043Z,22.05
2023-04-10T05:35:23.990Z,19.83
2023-04-10T05:37:50.933Z,20.40
2023-04-10T05:40:17.926Z,16.15
2023-04-10T05:42:44.925Z,17.62
2023-04-10T05:45:11.950Z,18.33
2023-04-10T05:47:39.227Z,17.08
2023-04-10T05:50:06.645Z,20.30
2023-04-10T05:52:33.585Z,18.00
2023-04-10T05:55:00.660Z,18.27
2023-04-10T05:57:27.753Z,20.92
2023-04-10T05:59:54.755Z,19.73
2023-04-10T06:02:22.119Z,20.85
2023-04-10T06:04:49.499Z,18.83
2023-04-10T06:07:16.881Z,18.98
2023-04-10T06:09:43.953Z,19.45
2023-04-10T06:12:11.014Z,19.70
2023-04-10T06:14:38.164Z,18.75
2023-04-10T06:17:05.167Z,18.90
2023-04-10T06:19:32.292Z,18.62
2023-04-10T06:21:59.509Z,20.00
2023-04-10T06:24:26.780Z,18.40
2023-04-10T06:26:54.020Z,19.92
2023-04-10T06:29:21.013Z,18.10
2023-04-10T06:31:48.069Z,19.58
2023-04-10T06:34:15.054Z,19.73
2023-04-10T06:36:42.046Z,16.77
2023-04-10T06:39:09.037Z,24.83
2023-04-10T06:41:36.130Z,23.02
2023-04-10T06:44:03.717Z,20.25
2023-04-10T06:46:30.916Z,19.20
2023-04-10T06:48:57.984Z,20.40
2023-04-10T06:51:25.114Z,21.40
2023-04-10T06:53:52.062Z,17.87
2023-04-10T06:56:19.054Z,19.50
2023-04-10T06:58:46.020Z,18.00
2023-04-10T07:01:13.028Z,18.73
2023-04-10T07:03:40.081Z,19.33
2023-04-10T07:06:08.608Z,21.02
2023-04-10T07:08:35.894Z,19.60
2023-04-10T07:11:02.915Z,20.90
2023-04-10T07:13:29.921Z,21.58
2023-04-10T07:15:57.062Z,20.25
2023-04-10T07:18:24.044Z,23.87
2023-04-10T07:20:52.164Z,20.60
2023-04-10T07:23:20.611Z,21.65
2023-04-10T07:25:47.624Z,25.73
2023-04-10T07:28:14.669Z,25.75
2023-04-10T07:30:41.701Z,24.23
2023-04-10T07:33:08.957Z,24.10
2023-04-10T07:35:36.896Z,29.65
2023-04-10T07:38:04.834Z,25.52
2023-04-10T07:40:31.856Z,25.55
2023-04-10T07:42:58.834Z,23.95
2023-04-10T07:45:26.548Z,25.52
2023-04-10T07:47:53.606Z,24.45
2023-04-10T07:50:20.652Z,26.40
2023-04-10T07:52:48.837Z,23.77
2023-04-10T07:55:16.069Z,27.42
2023-04-10T07:57:43.013Z,31.12
2023-04-10T08:00:10.517Z,30.02
2023-04-10T08:02:37.758Z,26.75
2023-04-10T08:05:05.244Z,27.75
2023-04-10T08:07:32.389Z,26.98
2023-04-10T08:09:59.374Z,31.70
2023-04-10T08:12:26.552Z,29.60
2023-04-10T08:14:53.568Z,31.08
2023-04-10T08:17:20.558Z,32.35
2023-04-10T08:19:47.584Z,29.95
2023-04-10T08:22:14.564Z,31.60
2023-04-10T08:24:41.456Z,33.53
2023-04-10T08:27:08.506Z,31.52
2023-04-10T08:29:35.406Z,28.90
2023-04-10T08:32:02.699Z,29.73
2023-04-10T08:34:29.734Z,33.70
2023-04-10T08:36:57.886Z,33.13
2023-04-10T08:39:25.149Z,30.05
2023-04-10T08:41:52.255Z,27.25
2023-04-10T08:44:19.244Z,26.42
2023-04-10T08:46:46.347Z,28.20
2023-04-10T08:49:24.984Z,27.35
2023-04-10T08:52:04.666Z,27.30
2023-04-10T08:57:05.088Z,25.75
2023-04-10T08:59:32.486Z,25.40
2023-04-10T09:02:00.032Z,25.12
2023-04-10T09:04:27.762Z,26.00
2023-04-10T09:06:54.887Z,25.05
2023-04-10T09:09:21.903Z,23.02
2023-04-10T09:12:01.058Z,25.70
2023-04-10T09:14:34.267Z,21.70
2023-04-10T09:17:20.609Z,22.62
2023-04-10T09:19:49.848Z,22.85
2023-04-10T09:22:17.207Z,24.00
2023-04-10T09:24:47.466Z,24.83
2023-04-10T09:27:42.434Z,21.60
2023-04-10T09:30:09.696Z,20.95
2023-04-10T09:32:42.488Z,22.17
2023-04-10T09:35:15.054Z,23.23
2023-04-10T09:37:45.223Z,21.73
2023-04-10T09:40:24.199Z,22.35
2023-04-10T09:42:51.787Z,23.60
2023-04-10T09:45:22.796Z,24.23
2023-04-10T09:48:07.847Z,23.08
2023-04-10T09:50:40.440Z,26.30
2023-04-10T09:53:09.229Z,22.98
2023-04-10T09:55:37.295Z,23.70
2023-04-10T09:58:05.849Z,20.60
2023-04-10T10:00:46.341Z,19.92
2023-04-10T10:03:18.668Z,20.42
2023-04-10T10:05:49.011Z,19.77
2023-04-10T10:08:16.901Z,19.83
2023-04-10T10:10:57.649Z,19.58
2023-04-10T10:13:44.807Z,20.30
2023-04-10T10:16:29.640Z,22.02
2023-04-10T10:19:14.738Z,19.20
2023-04-10T10:21:44.882Z,22.30
2023-04-10T10:24:13.400Z,20.48
2023-04-10T10:26:40.949Z,19.98
2023-04-10T10:29:13.724Z,18.80
2023-04-10T10:31:41.002Z,19.85
2023-04-10T10:34:09.537Z,19.25
2023-04-10T10:36:37.890Z,18.45
2023-04-10T10:39:11.259Z,17.75
2023-04-10T10:41:45.317Z,20.77
2023-04-10T10:44:17.797Z,17.08
2023-04-10T10:47:06.029Z,16.65
2023-04-10T10:49:59.823Z,24.98
2023-04-10T10:52:43.333Z,22.35
2023-04-10T10:55:22.852Z,20.67
2023-04-10T11:00:17.880Z,18.67
2023-04-10T11:02:45.493Z,20.05
2023-04-10T11:05:57.528Z,20.35
2023-04-10T11:08:48.875Z,19.10
2023-04-10T11:11:22.051Z,17.40
2023-04-10T11:13:52.393Z,18.55
2023-04-10T11:16:25.026Z,19.95
2023-04-10T11:19:02.832Z,17.33
2023-04-10T11:21:57.904Z,19.75
2023-04-10T11:24:24.989Z,20.15
2023-04-10T11:26:52.261Z,18.42
2023-04-10T11:29:28.569Z,18.70
2023-04-10T11:31:56.840Z,17.55
2023-04-10T11:34:24.406Z,17.45
2023-04-10T11:36:51.527Z,17.02
2023-04-10T11:39:20.662Z,16.08
2023-04-10T11:41:55.198Z,16.90
2023-04-10T11:44:32.818Z,19.35
2023-04-10T11:47:00.052Z,20.60
2023-04-10T11:49:34.932Z,18.23
2023-04-10T11:52:02.163Z,23.38
2023-04-10T11:54:30.265Z,18.20
2023-04-10T11:57:07.919Z,15.25
2023-04-10T11:59:35.741Z,16.40
2023-04-10T12:02:16.202Z,15.45
2023-04-10T12:04:44.693Z,15.48
2023-04-10T12:07:12.084Z,16.02
2023-04-10T12:09:39.330Z,16.62
2023-04-10T12:12:07.934Z,14.45
2023-04-10T12:14:39.938Z,16.08
2023-04-10T12:17:10.286Z,15.10
2023-04-10T12:19:38.774Z,13.82
2023-04-10T12:22:05.976Z,15.35
2023-04-10T12:24:47.679Z,15.75
2023-04-10T12:27:22.185Z,11.02
2023-04-10T12:29:51.457Z,15.38
2023-04-10T12:32:19.125Z,13.80
2023-04-10T12:35:01.663Z,15.45
2023-04-10T12:37:52.445Z,12.57
2023-04-10T12:40:20.957Z,14.93
2023-04-10T12:42:48.028Z,14.85
2023-04-10T12:45:15.578Z,14.57
2023-04-10T12:47:54.128Z,13.05
2023-04-10T12:50:21.471Z,13.35
2023-04-10T12:53:07.781Z,15.23
2023-04-10T12:55:34.870Z,13.93
2023-04-10T12:58:20.423Z,10.73
2023-04-10T13:00:48.254Z,12.02
2023-04-10T13:03:15.992Z,16.20
2023-04-10T13:05:43.189Z,14.23
2023-04-10T13:08:10.267Z,12.37
2023-04-10T13:10:38.524Z,7.40
2023-04-10T13:13:07.332Z,12.23
2023-04-10T13:15:35.094Z,13.80
2023-04-10T13:18:03.702Z,14.55
2023-04-10T13:20:34.118Z,14.63
2023-04-10T13:23:02.761Z,12.63
2023-04-10T13:25:34.763Z,13.35
2023-04-10T13:28:02.021Z,13.57
2023-04-10T13:30:29.673Z,12.43
2023-04-10T13:32:56.798Z,13.57
2023-04-10T13:35:23.978Z,14.55
2023-04-10T13:37:53.466Z,13.45
2023-04-10T13:40:21.646Z,11.07
2023-04-10T13:42:49.036Z,11.55
2023-04-10T13:45:16.206Z,10.00
2023-04-10T13:47:44.131Z,8.77
2023-04-10T13:50:11.620Z,8.90
2023-04-10T13:52:38.796Z,9.23
2023-04-10T13:55:06.806Z,9.95
2023-04-10T13:57:34.535Z,10.88
2023-04-10T14:00:01.836Z,10.68
2023-04-10T14:02:29.240Z,14.45
2023-04-10T14:04:56.329Z,10.52
2023-04-10T14:07:23.414Z,10.55
2023-04-10T14:09:50.599Z,11.90
2023-04-10T14:12:19.384Z,16.65
2023-04-10T14:14:46.512Z,10.83
2023-04-10T14:17:13.678Z,15.57
2023-04-10T14:19:42.014Z,23.02
2023-04-10T14:22:09.113Z,13.45
2023-04-10T14:24:36.185Z,18.70
2023-04-10T14:27:03.275Z,14.20
2023-04-10T14:29:36.309Z,13.00
2023-04-10T14:32:06.437Z,10.88
2023-04-10T14:34:33.538Z,12.45
2023-04-10T14:37:00.897Z,11.65
2023-04-10T14:39:28.159Z,10.23
2023-04-10T14:41:55.251Z,13.73
2023-04-10T14:44:22.431Z,13.05
2023-04-10T14:46:49.523Z,10.35
2023-04-10T14:49:16.722Z,8.73
2023-04-10T14:51:45.051Z,11.23
2023-04-10T14:54:12.451Z,8.68
2023-04-10T14:56:39.530Z,9.52
2023-04-10T14:59:07.323Z,9.60
2023-04-10T15:01:36.132Z,12.02
2023-04-10T15:04:03.234Z,11.63
2023-04-10T15:06:32.635Z,12.07
2023-04-10T15:08:59.915Z,13.23
2023-04-10T15:11:26.986Z,12.70
2023-04-10T15:13:54.495Z,12.05
2023-04-10T15:16:21.761Z,15.73
2023-04-10T15:18:49.682Z,11.60
2023-04-10T15:21:17.175Z,13.82
2023-04-10T15:23:44.204Z,13.30
2023-04-10T15:26:14.901Z,13.57
2023-04-10T15:28:46.109Z,12.07
2023-04-10T15:31:13.208Z,17.17
2023-04-10T15:33:40.388Z,14.05
2023-04-10T15:36:08.128Z,13.80
2023-04-10T15:38:36.037Z,13.40
2023-04-10T15:41:13.376Z,16.15
2023-04-10T15:43:40.566Z,16.52
2023-04-10T15:46:07.661Z,14.63
2023-04-10T15:48:34.801Z,15.73
2023-04-10T15:51:06.654Z,18.45
2023-04-10T15:53:35.286Z,16.42
2023-04-10T15:56:05.310Z,14.02
2023-04-10T15:58:32.776Z,14.13
2023-04-10T16:01:00.029Z,13.30
2023-04-10T16:03:29.498Z,13.43
2023-04-10T16:05:58.685Z,16.60
2023-04-10T16:08:26.585Z,13.18
2023-04-10T16:10:54.087Z,17.08
2023-04-10T16:13:21.219Z,14.25
2023-04-10T16:15:49.495Z,13.95
2023-04-10T16:18:16.627Z,13.35
2023-04-10T16:20:43.792Z,14.55
2023-04-10T16:23:10.973Z,12.75
2023-04-10T16:25:38.079Z,14.00
2023-04-10T16:28:08.208Z,13.68
2023-04-10T16:30:36.348Z,14.10
2023-04-10T16:33:04.434Z,23.12
2023-04-10T16:35:32.136Z,18.98
2023-04-10T16:37:59.239Z,20.75
2023-04-10T16:40:32.833Z,16.70
2023-04-10T16:43:01.269Z,24.02
2023-04-10T16:45:28.422Z,25.05
2023-04-10T16:47:55.605Z,17.00
2023-04-10T16:50:22.812Z,16.12
2023-04-10T16:52:51.925Z,16.50
2023-04-10T16:55:19.104Z,16.33
2023-04-10T16:57:46.903Z,17.40
2023-04-10T17:00:14.472Z,17.65
2023-04-10T17:02:43.173Z,18.17
2023-04-10T17:05:11.368Z,15.00
2023-04-10T17:07:38.536Z,17.17
2023-04-10T17:10:06.077Z,17.65
2023-04-10T17:12:33.144Z,17.62
2023-04-10T17:15:00.275Z,18.00
2023-04-10T17:17:27.383Z,15.40
2023-04-10T17:19:54.956Z,16.67
2023-04-10T17:22:23.593Z,20.20
2023-04-10T17:24:50.967Z,17.83
2023-04-10T17:27:17.975Z,17.10
2023-04-10T17:29:45.083Z,17.08
2023-04-10T17:32:12.173Z,17.67
2023-04-10T17:34:39.268Z,16.77
2023-04-10T17:37:06.282Z,18.83
2023-04-10T17:39:33.362Z,24.02
2023-04-10T17:42:00.494Z,26.52
2023-04-10T17:44:27.680Z,23.00
2023-04-10T17:46:54.787Z,23.50
2023-04-10T17:49:22.441Z,32.05
2023-04-10T17:51:50.044Z,39.80
2023-04-10T17:54:17.263Z,40.95
2023-04-10T17:56:44.405Z,32.45
2023-04-10T17:59:11.770Z,33.28
2023-04-10T18:01:39.212Z,29.67
2023-04-10T18:04:06.557Z,31.85
2023-04-10T18:06:33.865Z,33.58
2023-04-10T18:09:00.952Z,27.75
2023-04-10T18:11:28.847Z,30.10
2023-04-10T18:13:55.898Z,30.60
2023-04-10T18:16:23.047Z,33.15
2023-04-10T18:18:50.212Z,33.80
2023-04-10T18:21:17.226Z,29.17
2023-04-10T18:23:44.912Z,38.00
2023-04-10T18:26:12.193Z,39.60
2023-04-10T18:28:39.823Z,41.55
2023-04-10T18:31:08.652Z,45.22
2023-04-10T18:33:35.859Z,41.33
2023-04-10T18:36:03.749Z,31.00
2023-04-10T18:38:31.132Z,36.70
2023-04-10T18:40:59.730Z,32.95
2023-04-10T18:43:29.633Z,32.90
2023-04-10T18:45:57.255Z,37.03
2023-04-10T18:48:24.466Z,32.20
2023-04-10T18:50:56.312Z,33.97
2023-04-10T18:53:23.463Z,29.95
2023-04-10T18:55:55.015Z,37.80
2023-04-10T18:58:22.498Z,39.40
2023-04-10T19:00:50.152Z,31.85
2023-04-10T19:03:17.411Z,33.45
2023-04-10T19:05:44.877Z,26.62
2023-04-10T19:08:14.768Z,31.58
2023-04-10T19:13:12.161Z,31.23
2023-04-10T19:18:10.359Z,27.58
2023-04-10T19:20:50.375Z,28.85
2023-04-10T19:23:19.858Z,16.67
2023-04-10T19:25:47.320Z,20.30
2023-04-10T19:28:14.389Z,16.98
2023-04-10T19:30:41.462Z,17.75
2023-04-10T19:33:08.445Z,16.35
2023-04-10T19:35:35.511Z,15.60
2023-04-10T19:38:02.642Z,16.90
2023-04-10T19:40:31.275Z,14.40
2023-04-10T19:43:02.762Z,14.25
2023-04-10T19:45:29.858Z,15.88
2023-04-10T19:47:57.274Z,16.35
2023-04-10T19:50:24.772Z,16.15
2023-04-10T19:52:52.112Z,16.30
2023-04-10T19:55:19.427Z,17.37
2023-04-10T19:57:46.515Z,15.23
2023-04-10T20:00:14.093Z,14.18
2023-04-10T20:02:41.626Z,15.57
2023-04-10T20:05:09.414Z,15.50
2023-04-10T20:07:36.461Z,17.17
2023-04-10T20:10:04.706Z,16.00
2023-04-10T20:12:35.248Z,17.40
2023-04-10T20:15:03.906Z,15.98
2023-04-10T20:17:31.273Z,14.60
2023-04-10T20:19:58.778Z,14.13
2023-04-10T20:22:25.766Z,17.27
2023-04-10T20:24:52.827Z,17.08
2023-04-10T20:27:19.893Z,16.55
2023-04-10T20:29:46.979Z,18.67
2023-04-10T20:32:14.051Z,17.70
2023-04-10T20:34:41.020Z,19.85
2023-04-10T20:37:08.172Z,21.12
2023-04-10T20:39:36.238Z,21.23
2023-04-10T20:42:03.378Z,20.40
2023-04-10T20:44:30.381Z,18.73
2023-04-10T20:46:58.218Z,21.02
2023-04-10T20:49:45.212Z,23.50
2023-04-10T20:52:13.441Z,22.23
2023-04-10T20:54:41.439Z,28.95
2023-04-10T20:57:08.825Z,34.85
2023-04-10T20:59:36.818Z,30.45
2023-04-10T21:02:04.216Z,30.62
2023-04-10T21:04:52.721Z,37.90
2023-04-10T21:07:20.527Z,48.73
2023-04-10T21:09:49.642Z,66.18
2023-04-10T21:12:17.481Z,34.60
2023-04-10T21:14:44.917Z,42.35
2023-04-10T21:17:13.214Z,45.53
2023-04-10T21:19:40.113Z,46.30
2023-04-10T21:22:10.764Z,55.35
2023-04-10T21:27:05.514Z,35.45
2023-04-10T21:29:33.065Z,26.48
2023-04-10T21:32:02.272Z,31.58
2023-04-10T21:34:35.720Z,47.67
2023-04-10T21:37:02.767Z,54.38
2023-04-10T21:39:30.417Z,51.45
2023-04-10T21:41:57.980Z,41.15
2023-04-10T21:44:25.968Z,39.05
2023-04-10T21:46:53.273Z,50.17
2023-04-10T21:49:20.548Z,61.63
2023-04-10T21:51:47.663Z,48.42
2023-04-10T21:54:14.854Z,59.88
2023-04-10T21:56:42.244Z,54.55
2023-04-10T21:59:09.283Z,51.67
2023-04-10T22:01:36.501Z,50.20
2023-04-10T22:04:03.819Z,40.65
2023-04-10T22:06:31.737Z,34.08
2023-04-10T22:08:58.795Z,32.08
2023-04-10T22:11:26.014Z,23.60
2023-04-10T22:13:53.656Z,27.60
2023-04-10T22:16:21.904Z,26.27
2023-04-10T22:18:49.018Z,27.10
2023-04-10T22:21:16.106Z,23.02
2023-04-10T22:23:43.044Z,30.25
2023-04-10T22:26:10.079Z,21.62
2023-04-10T22:28:37.177Z,24.37
2023-04-10T22:31:04.210Z,34.45
2023-04-10T22:33:34.412Z,28.27
2023-04-10T22:36:01.493Z,27.20
2023-04-10T22:38:28.601Z,34.67
2023-04-10T22:40:56.155Z,36.33
2023-04-10T22:43:23.200Z,24.02
2023-04-10T22:45:50.264Z,27.27
2023-04-10T22:48:17.301Z,35.88
2023-04-10T22:50:44.572Z,35.92
2023-04-10T22:53:12.434Z,29.02
2023-04-10T22:55:39.879Z,35.25
2023-04-10T22:58:07.926Z,37.35
2023-04-10T23:00:35.079Z,34.83
2023-04-10T23:03:02.322Z,38.30
2023-04-10T23:05:29.643Z,37.08
2023-04-10T23:07:56.604Z,31.83
2023-04-10T23:10:23.517Z,30.62
2023-04-10T23:12:50.702Z,32.03
2023-04-10T23:15:18.071Z,30.90
2023-04-10T23:17:45.796Z,24.02
2023-04-10T23:20:32.706Z,26.80
2023-04-10T23:23:00.145Z,21.73
2023-04-10T23:25:29.029Z,24.92
2023-04-10T23:27:56.486Z,24.70
2023-04-10T23:30:23.656Z,26.67
2023-04-10T23:32:53.016Z,26.00
2023-04-10T23:35:21.185Z,22.35
2023-04-10T23:37:53.447Z,33.67
2023-04-10T23:40:21.868Z,35.88
2023-04-10T23:42:48.787Z,23.92
2023-04-10T23:45:15.959Z,31.85
2023-04-10T23:47:42.954Z,23.65
2023-04-10T23:50:10.711Z,27.20
2023-04-10T23:52:59.619Z,23.05
2023-04-10T23:55:26.837Z,23.00
2023-04-10T23:57:53.798Z,24.52
